createdAt,value
2023-04-27T00:03:32.431Z,100720.41
2023-04-27T00:08:29.066Z,100725.28
2023-04-27T00:13:25.408Z,100727.16
2023-04-27T00:18:21.699Z,100731.56
2023-04-27T00:23:17.985Z,100733.66
2023-04-27T00:28:14.432Z,100721.75
2023-04-27T00:33:10.761Z,100721.94
2023-04-27T00:38:07.218Z,100723.69
2023-04-27T00:43:03.521Z,100733.88
2023-04-27T00:47:59.946Z,100728.75
2023-04-27T00:52:57.381Z,100722.84
2023-04-27T00:57:53.678Z,100732.75
2023-04-27T01:02:52.065Z,100734.78
2023-04-27T01:07:48.516Z,100747.13
2023-04-27T01:12:44.862Z,100755.81
2023-04-27T01:17:41.683Z,100756.78
2023-04-27T01:22:38.442Z,100753.72
2023-04-27T01:27:34.818Z,100766.56
2023-04-27T01:32:31.257Z,100765.56
2023-04-27T01:37:27.646Z,100780.59
2023-04-27T01:42:23.946Z,100787.09
2023-04-27T01:47:20.738Z,100787.00
2023-04-27T01:52:17.033Z,100793.19
2023-04-27T01:57:14.341Z,100792.94
2023-04-27T02:02:10.709Z,100797.28
2023-04-27T02:07:07.162Z,100796.59
2023-04-27T02:12:03.711Z,100799.06
2023-04-27T02:17:00.362Z,100807.47
2023-04-27T02:21:56.769Z,100799.44
2023-04-27T02:26:53.085Z,100806.81
2023-04-27T02:31:49.475Z,100805.78
2023-04-27T02:36:45.889Z,100804.78
2023-04-27T02:41:42.241Z,100805.25
2023-04-27T02:46:38.650Z,100802.06
2023-04-27T02:51:34.984Z,100804.22
2023-04-27T02:56:31.380Z,100805.53
2023-04-27T03:01:28.264Z,100795.53
2023-04-27T03:06:24.648Z,100797.66
2023-04-27T03:11:20.947Z,100801.44
2023-04-27T03:16:17.462Z,100799.75
2023-04-27T03:21:13.894Z,100797.84
2023-04-27T03:26:11.903Z,100781.00
2023-04-27T03:31:11.288Z,100786.38
2023-04-27T03:36:10.271Z,100800.34
2023-04-27T03:41:06.615Z,100789.44
2023-04-27T03:46:03.020Z,100791.19
2023-04-27T03:51:00.732Z,100788.06
2023-04-27T03:55:57.097Z,100791.19
2023-04-27T04:00:54.671Z,100796.75
2023-04-27T04:05:51.278Z,100808.81
2023-04-27T04:10:47.567Z,100808.94
2023-04-27T04:15:43.929Z,100809.72
2023-04-27T04:20:41.257Z,100824.88
2023-04-27T04:25:40.211Z,100831.06
2023-04-27T04:30:36.782Z,100825.91
2023-04-27T04:35:33.322Z,100835.25
2023-04-27T04:40:29.865Z,100842.88
2023-04-27T04:45:26.996Z,100847.22
2023-04-27T04:50:23.504Z,100847.66
2023-04-27T04:55:20.543Z,100851.34
2023-04-27T05:00:17.043Z,100849.56
2023-04-27T05:05:13.467Z,100849.03
2023-04-27T05:10:10.069Z,100853.75
2023-04-27T05:15:07.138Z,100856.84
2023-04-27T05:20:04.900Z,100858.94
2023-04-27T05:25:01.356Z,100857.63
2023-04-27T05:29:58.073Z,100867.50
2023-04-27T05:34:54.388Z,100882.63
2023-04-27T05:39:50.775Z,100886.47
2023-04-27T05:44:47.103Z,100875.72
2023-04-27T05:49:43.601Z,100874.06
2023-04-27T05:54:39.958Z,100871.81
2023-04-27T05:59:36.397Z,100875.94
2023-04-27T06:04:33.417Z,100883.03
2023-04-27T06:09:32.847Z,100876.09
2023-04-27T06:14:29.155Z,100876.09
2023-04-27T06:19:26.721Z,100874.41
2023-04-27T06:24:23.284Z,100874.88
2023-04-27T06:29:19.605Z,100878.38
2023-04-27T06:34:15.951Z,100879.19
2023-04-27T06:39:12.478Z,100878.19
2023-04-27T06:44:09.094Z,100871.44
2023-04-27T06:49:05.825Z,100879.09
2023-04-27T06:54:02.159Z,100882.88
2023-04-27T06:58:58.780Z,100883.50
2023-04-27T07:03:55.446Z,100881.50
2023-04-27T07:08:52.012Z,100893.16
2023-04-27T07:13:48.399Z,100879.31
2023-04-27T07:18:44.772Z,100879.53
2023-04-27T07:23:41.788Z,100878.97
2023-04-27T07:28:39.115Z,100875.81
2023-04-27T07:33:35.505Z,100872.91
2023-04-27T07:38:31.918Z,100867.03
2023-04-27T07:43:28.593Z,100857.16
2023-04-27T07:48:25.454Z,100860.63
2023-04-27T07:53:21.883Z,100858.97
2023-04-27T07:58:20.200Z,100857.06
2023-04-27T08:03:17.278Z,100856.50
2023-04-27T08:08:13.914Z,100854.41
2023-04-27T08:13:10.500Z,100849.53
2023-04-27T08:18:06.978Z,100847.91
2023-04-27T08:23:03.368Z,100856.00
2023-04-27T08:27:59.783Z,100854.75
2023-04-27T08:32:56.280Z,100852.59
2023-04-27T08:37:54.264Z,100851.91
2023-04-27T08:42:56.148Z,100851.72
2023-04-27T08:47:53.782Z,100847.81
2023-04-27T08:52:51.051Z,100842.28
2023-04-27T08:57:58.047Z,100848.44
2023-04-27T09:02:54.628Z,100842.94
2023-04-27T09:07:58.721Z,100848.69
2023-04-27T09:13:00.241Z,100840.13
2023-04-27T09:17:57.899Z,100836.19
2023-04-27T09:22:55.974Z,100836.72
2023-04-27T09:27:52.387Z,100846.31
2023-04-27T09:32:57.325Z,100843.25
2023-04-27T09:37:54.544Z,100839.38
2023-04-27T09:42:51.111Z,100830.50
2023-04-27T09:47:48.191Z,100833.06
2023-04-27T09:52:46.565Z,100831.44
2023-04-27T09:57:48.784Z,100828.97
2023-04-27T10:03:03.620Z,100820.09
2023-04-27T10:08:00.707Z,100810.63
2023-04-27T10:13:00.869Z,100804.03
2023-04-27T10:18:04.822Z,100812.78
2023-04-27T10:23:01.542Z,100803.34
2023-04-27T10:27:59.964Z,100794.91
2023-04-27T10:32:57.304Z,100787.41
2023-04-27T10:37:53.678Z,100780.41
2023-04-27T10:42:49.999Z,100776.84
2023-04-27T10:47:46.967Z,100777.44
2023-04-27T10:52:44.232Z,100774.13
2023-04-27T10:58:01.922Z,100766.75
2023-04-27T11:03:18.490Z,100758.00
2023-04-27T11:08:19.349Z,100754.63
2023-04-27T11:13:28.005Z,100745.53
2023-04-27T11:18:27.227Z,100726.00
2023-04-27T11:23:30.533Z,100748.31
2023-04-27T11:28:26.934Z,100738.88
2023-04-27T11:33:23.306Z,100737.50
2023-04-27T11:38:20.129Z,100727.59
2023-04-27T11:43:16.715Z,100729.38
2023-04-27T11:48:16.684Z,100728.09
2023-04-27T11:53:13.066Z,100717.91
2023-04-27T11:58:16.290Z,100714.34
2023-04-27T12:03:13.011Z,100723.13
2023-04-27T12:08:09.740Z,100739.75
2023-04-27T12:13:06.136Z,100726.84
2023-04-27T12:18:02.745Z,100726.44
2023-04-27T12:22:59.108Z,100723.16
2023-04-27T12:27:55.898Z,100710.16
2023-04-27T12:32:52.319Z,100715.78
2023-04-27T12:37:50.017Z,100711.56
2023-04-27T12:42:46.362Z,100708.31
2023-04-27T12:48:01.250Z,100706.69
2023-04-27T12:52:59.805Z,100689.03
2023-04-27T12:57:58.139Z,100698.38
2023-04-27T13:02:54.636Z,100700.34
2023-04-27T13:07:51.213Z,100701.22
2023-04-27T13:12:47.532Z,100688.31
2023-04-27T13:17:44.186Z,100687.91
2023-04-27T13:22:40.906Z,100684.00
2023-04-27T13:27:37.383Z,100691.41
2023-04-27T13:32:33.896Z,100688.28
2023-04-27T13:37:30.364Z,100688.59
2023-04-27T13:42:29.365Z,100677.75
2023-04-27T13:47:25.917Z,100675.34
2023-04-27T13:52:22.286Z,100677.09
2023-04-27T13:57:18.695Z,100664.78
2023-04-27T14:02:15.138Z,100658.00
2023-04-27T14:07:11.490Z,100648.13
2023-04-27T14:12:09.217Z,100649.91
2023-04-27T14:17:05.782Z,100652.03
2023-04-27T14:22:02.270Z,100633.03
2023-04-27T14:26:58.762Z,100644.19
2023-04-27T14:31:56.005Z,100639.41
2023-04-27T14:36:52.390Z,100629.94
2023-04-27T14:41:48.780Z,100636.84
2023-04-27T14:46:45.256Z,100632.59
2023-04-27T14:51:43.502Z,100629.78
2023-04-27T14:56:40.129Z,100618.66
2023-04-27T15:01:37.173Z,100619.16
2023-04-27T15:06:33.714Z,100609.56
2023-04-27T15:11:30.117Z,100613.59
2023-04-27T15:16:26.514Z,100608.22
2023-04-27T15:21:23.027Z,100600.25
2023-04-27T15:26:19.378Z,100609.56
2023-04-27T15:31:15.925Z,100599.28
2023-04-27T15:36:12.700Z,100602.59
2023-04-27T15:41:09.283Z,100597.28
2023-04-27T15:46:06.392Z,100601.75
2023-04-27T15:51:03.881Z,100579.88
2023-04-27T15:56:00.353Z,100582.31
2023-04-27T16:00:56.815Z,100581.84
2023-04-27T16:05:53.201Z,100576.16
2023-04-27T16:10:50.055Z,100576.16
2023-04-27T16:15:46.573Z,100576.09
2023-04-27T16:20:42.859Z,100566.09
2023-04-27T16:25:39.146Z,100563.88
2023-04-27T16:30:37.557Z,100564.28
2023-04-27T16:35:34.785Z,100558.38
2023-04-27T16:40:31.904Z,100546.56
2023-04-27T16:45:28.587Z,100544.63
2023-04-27T16:50:25.473Z,100535.06
2023-04-27T16:55:21.981Z,100530.38
2023-04-27T17:00:18.508Z,100544.94
2023-04-27T17:05:14.913Z,100538.22
2023-04-27T17:10:11.571Z,100544.81
2023-04-27T17:15:09.080Z,100542.81
2023-04-27T17:20:07.122Z,100536.31
2023-04-27T17:25:04.042Z,100536.06
2023-04-27T17:30:00.567Z,100535.50
2023-04-27T17:34:57.511Z,100521.97
2023-04-27T17:39:54.442Z,100518.69
2023-04-27T17:44:50.735Z,100509.75
2023-04-27T17:49:47.032Z,100506.41
2023-04-27T17:54:43.379Z,100520.00
2023-04-27T17:59:39.713Z,100523.56
2023-04-27T18:04:36.540Z,100515.34
2023-04-27T18:09:33.177Z,100516.78
2023-04-27T18:14:29.536Z,100510.66
2023-04-27T18:19:25.837Z,100517.25
2023-04-27T18:24:22.150Z,100513.59
2023-04-27T18:29:18.493Z,100519.47
2023-04-27T18:34:14.828Z,100525.09
2023-04-27T18:39:11.526Z,100529.00
2023-04-27T18:44:07.978Z,100520.78
2023-04-27T18:49:04.269Z,100516.50
2023-04-27T18:54:00.613Z,100509.19
2023-04-27T18:58:57.412Z,100520.28
2023-04-27T19:03:54.363Z,100526.25
2023-04-27T19:08:51.176Z,100521.69
2023-04-27T19:13:48.520Z,100534.91
2023-04-27T19:18:44.882Z,100535.31
2023-04-27T19:23:41.392Z,100532.78
2023-04-27T19:28:37.854Z,100527.34
2023-04-27T19:33:34.258Z,100536.06
2023-04-27T19:38:30.872Z,100538.38
2023-04-27T19:43:27.233Z,100535.47
2023-04-27T19:48:23.614Z,100533.13
2023-04-27T19:53:20.729Z,100529.00
2023-04-27T19:58:17.243Z,100545.28
2023-04-27T20:03:14.260Z,100531.22
2023-04-27T20:08:10.955Z,100529.94
2023-04-27T20:13:07.302Z,100525.06
2023-04-27T20:18:03.690Z,100530.53
2023-04-27T20:23:00.061Z,100520.06
2023-04-27T20:27:56.382Z,100507.31
2023-04-27T20:32:52.703Z,100502.84
2023-04-27T20:37:49.148Z,100495.59
2023-04-27T20:42:46.031Z,100484.78
2023-04-27T20:47:42.529Z,100476.50
2023-04-27T20:52:38.921Z,100480.28
2023-04-27T20:57:35.555Z,100478.13
2023-04-27T21:02:31.965Z,100471.56
2023-04-27T21:07:28.386Z,100473.72
2023-04-27T21:12:24.690Z,100476.53
2023-04-27T21:17:21.027Z,100471.84
2023-04-27T21:22:17.451Z,100466.66
2023-04-27T21:27:13.944Z,100465.31
2023-04-27T21:32:10.417Z,100453.78
2023-04-27T21:37:06.718Z,100436.25
2023-04-27T21:42:03.048Z,100439.25
2023-04-27T21:47:00.183Z,100429.47
2023-04-27T21:51:56.455Z,100430.97
2023-04-27T21:56:52.976Z,100424.50
2023-04-27T22:02:00.611Z,100418.25
2023-04-27T22:06:56.927Z,100403.94
2023-04-27T22:11:53.377Z,100399.56
2023-04-27T22:16:50.266Z,100389.72
2023-04-27T22:21:47.062Z,100380.81
2023-04-27T22:26:43.404Z,100371.38
2023-04-27T22:31:40.393Z,100365.63
2023-04-27T22:36:36.912Z,100359.06
2023-04-27T22:41:33.596Z,100357.44
2023-04-27T22:46:30.073Z,100352.56
2023-04-27T22:51:27.465Z,100352.88
2023-04-27T22:56:24.049Z,100348.19
2023-04-27T23:01:20.488Z,100346.28
2023-04-27T23:06:16.861Z,100335.88
2023-04-27T23:11:13.832Z,100324.00
2023-04-27T23:16:10.506Z,100331.66
2023-04-27T23:21:06.989Z,100322.94
2023-04-27T23:26:03.389Z,100318.31
2023-04-27T23:30:59.825Z,100313.03
2023-04-27T23:35:56.303Z,100297.16
2023-04-27T23:40:52.743Z,100303.94
2023-04-27T23:45:51.315Z,100292.19
2023-04-27T23:50:47.663Z,100284.41
2023-04-27T23:55:44.043Z,100274.69
